Time;durP1;ratioP1;P1;durP2;ratioP2;P2;SDS_P1;SDS_P2;PMS_P1;PMS_P2;Temp;Humidity;BMP_temperature;BMP_pressure;BME280_temperature;BME280_humidity;BME280_pressure;Samples;Min_cycle;Max_cycle;Signal;HPM_P1;HPM_P2
2021/09/27 00:02:19;;;;;;;19.23;10.20;;;;;;;14.50;100.00;95812.25;4971554;28;20047;-78
2021/09/27 00:04:45;;;;;;;23.75;10.07;;;;;;;14.51;100.00;95811.19;4953270;29;20047;-80
2021/09/27 00:07:10;;;;;;;21.25;10.48;;;;;;;14.44;100.00;95809.94;4958508;28;20050;-79
2021/09/27 00:09:36;;;;;;;18.98;9.77;;;;;;;14.45;100.00;95806.22;4958054;28;20070;-80
2021/09/27 00:12:05;;;;;;;18.13;9.38;;;;;;;14.49;100.00;95812.53;4956434;28;20051;-79
2021/09/27 00:14:31;;;;;;;20.10;10.07;;;;;;;14.44;100.00;95817.88;4969997;28;20455;-79
2021/09/27 00:16:57;;;;;;;20.67;9.07;;;;;;;14.34;100.00;95806.38;4954953;28;20523;-79
2021/09/27 00:19:24;;;;;;;21.70;10.57;;;;;;;14.42;100.00;95810.22;4972055;28;20039;-79
2021/09/27 00:21:52;;;;;;;18.10;9.63;;;;;;;14.37;100.00;95805.03;4972342;28;20559;-78
2021/09/27 00:24:18;;;;;;;23.95;9.98;;;;;;;14.35;100.00;95807.97;4967075;28;20043;-79
2021/09/27 00:26:45;;;;;;;20.58;9.32;;;;;;;14.40;100.00;95814.25;4953938;28;20050;-78
2021/09/27 00:29:11;;;;;;;18.17;9.48;;;;;;;14.38;100.00;95807.38;4972064;28;20047;-78
2021/09/27 00:31:37;;;;;;;18.25;8.95;;;;;;;14.42;100.00;95806.81;4972028;28;20135;-79
2021/09/27 00:34:03;;;;;;;16.80;9.70;;;;;;;14.44;100.00;95804.66;4969191;28;20050;-78
2021/09/27 00:36:29;;;;;;;18.13;9.02;;;;;;;14.44;100.00;95804.66;4966657;28;20240;-78
2021/09/27 00:38:55;;;;;;;20.40;9.77;;;;;;;14.37;100.00;95800.50;4968676;28;20077;-79
2021/09/27 00:41:21;;;;;;;17.55;9.18;;;;;;;14.33;100.00;95804.03;4972640;28;20046;-78
2021/09/27 00:43:48;;;;;;;18.33;9.52;;;;;;;14.33;100.00;95799.50;4970275;28;20074;-78
2021/09/27 00:46:18;;;;;;;18.00;9.48;;;;;;;14.31;100.00;95801.66;4958290;28;20043;-77
2021/09/27 00:48:44;;;;;;;17.77;9.80;;;;;;;14.33;100.00;95796.84;4966588;28;20096;-79
2021/09/27 00:51:15;;;;;;;18.95;9.98;;;;;;;14.37;100.00;95800.50;4970323;28;20445;-78
2021/09/27 00:53:42;;;;;;;18.77;9.88;;;;;;;14.29;100.00;95793.19;4969825;28;20066;-78
2021/09/27 00:56:09;;;;;;;22.63;9.65;;;;;;;14.28;100.00;95785.53;4962023;28;20066;-77
2021/09/27 00:58:37;;;;;;;16.00;9.82;;;;;;;14.22;100.00;95787.47;4970683;28;20595;-78
2021/09/27 01:01:04;;;;;;;15.90;9.23;;;;;;;14.29;100.00;95790.56;4971263;28;20512;-79
2021/09/27 01:03:30;;;;;;;17.95;9.95;;;;;;;14.24;100.00;95788.00;4971389;28;20050;-78
2021/09/27 01:06:05;;;;;;;17.70;9.60;;;;;;;14.22;100.00;95792.75;4969551;28;20861;-78
2021/09/27 01:08:54;;;;;;;17.73;9.77;;;;;;;14.08;100.00;95786.59;4968638;28;20054;-78
2021/09/27 01:11:57;;;;;;;17.55;9.80;;;;;;;14.18;100.00;95786.50;4951733;28;20501;-78
2021/09/27 01:14:47;;;;;;;20.30;9.70;;;;;;;14.16;100.00;95793.91;4968873;28;20065;-78
2021/09/27 01:17:35;;;;;;;16.67;8.95;;;;;;;14.15;100.00;95789.69;4956839;28;20188;-79
2021/09/27 01:20:07;;;;;;;19.85;9.73;;;;;;;14.10;100.00;95789.78;4971316;28;20043;-78
2021/09/27 01:22:38;;;;;;;18.60;10.40;;;;;;;14.06;100.00;95789.53;4970956;28;20122;-79
2021/09/27 01:25:16;;;;;;;16.70;9.18;;;;;;;13.99;100.00;95795.19;4966801;28;20082;-78
2021/09/27 01:28:03;;;;;;;21.05;10.60;;;;;;;14.06;100.00;95794.06;4971486;28;20518;-78
2021/09/27 01:30:31;;;;;;;23.45;10.15;;;;;;;14.01;100.00;95793.03;4971017;28;20113;-78
2021/09/27 01:33:03;;;;;;;18.92;10.73;;;;;;;14.04;100.00;95797.75;4966882;28;20062;-78
2021/09/27 01:35:32;;;;;;;20.80;10.98;;;;;;;14.07;100.00;95798.28;4970858;28;20082;-78
2021/09/27 01:38:23;;;;;;;19.52;9.65;;;;;;;14.08;100.00;95802.47;4970870;28;20498;-79
2021/09/27 01:41:10;;;;;;;20.65;9.68;;;;;;;14.04;100.00;95791.69;4963712;28;20685;-79
2021/09/27 01:44:02;;;;;;;17.80;9.40;;;;;;;14.12;100.00;95782.31;4960542;28;20046;-78
2021/09/27 01:46:33;;;;;;;20.20;9.60;;;;;;;14.09;100.00;95788.19;4961737;28;20090;-78
2021/09/27 01:49:04;;;;;;;20.88;9.90;;;;;;;14.08;100.00;95781.31;4969085;28;20051;-78
2021/09/27 01:51:56;;;;;;;21.23;10.55;;;;;;;14.06;100.00;95780.81;4970033;28;20054;-78
2021/09/27 01:54:44;;;;;;;26.95;10.48;;;;;;;13.97;100.00;95776.16;4969842;28;20128;-79
2021/09/27 01:57:22;;;;;;;19.45;10.10;;;;;;;14.00;100.00;95775.59;4966456;28;20039;-79
2021/09/27 01:59:56;;;;;;;19.25;9.80;;;;;;;14.03;100.00;95774.22;4970873;28;20073;-78
2021/09/27 02:02:24;;;;;;;18.70;10.30;;;;;;;14.01;100.00;95777.16;4970073;28;20051;-79
2021/09/27 02:05:13;;;;;;;20.40;10.05;;;;;;;13.92;100.00;95773.59;4967341;28;20268;-79
2021/09/27 02:07:53;;;;;;;17.88;10.05;;;;;;;13.98;100.00;95775.09;4969387;28;20050;-78
2021/09/27 02:10:23;;;;;;;19.35;9.38;;;;;;;13.86;100.00;95770.22;4969184;28;20042;-78
2021/09/27 02:13:02;;;;;;;23.77;10.88;;;;;;;13.83;100.00;95769.97;4970033;28;20047;-78
2021/09/27 02:15:36;;;;;;;20.42;10.15;;;;;;;13.82;100.00;95768.41;4969810;28;20414;-79
2021/09/27 02:18:23;;;;;;;20.48;10.48;;;;;;;13.91;100.00;95777.28;4971047;28;20050;-78
2021/09/27 02:20:55;;;;;;;22.38;10.18;;;;;;;13.97;100.00;95770.88;4969478;28;20049;-79
2021/09/27 02:23:34;;;;;;;22.40;9.95;;;;;;;13.92;100.00;95770.94;4963822;28;20051;-79
2021/09/27 02:26:00;;;;;;;18.38;9.98;;;;;;;13.94;100.00;95771.44;4971249;28;20039;-77
2021/09/27 02:28:26;;;;;;;19.45;9.85;;;;;;;13.99;100.00;95768.75;4961469;28;20043;-79
2021/09/27 02:30:55;;;;;;;19.00;9.65;;;;;;;13.95;100.00;95773.03;4969113;28;20054;-79
2021/09/27 02:33:49;;;;;;;15.40;8.80;;;;;;;13.96;100.00;95768.50;4955110;29;20637;-78
2021/09/27 02:36:23;;;;;;;19.15;9.50;;;;;;;13.81;100.00;95764.19;4968068;28;20043;-78
2021/09/27 02:39:03;;;;;;;17.92;10.27;;;;;;;13.80;100.00;95765.25;4972099;28;20043;-79
2021/09/27 02:41:39;;;;;;;16.50;8.85;;;;;;;13.85;100.00;95763.34;4973422;28;20042;-78
2021/09/27 02:44:05;;;;;;;19.55;9.52;;;;;;;13.76;100.00;95762.38;4972253;28;20498;-79
2021/09/27 02:46:31;;;;;;;20.67;9.57;;;;;;;13.65;100.00;95764.38;4971904;28;20097;-79
2021/09/27 02:49:10;;;;;;;17.02;9.18;;;;;;;13.55;100.00;95759.22;4954555;28;20050;-79
2021/09/27 02:51:45;;;;;;;20.30;10.30;;;;;;;13.54;100.00;95762.91;4954648;28;20075;-78
2021/09/27 02:54:13;;;;;;;17.58;9.85;;;;;;;13.64;100.00;95762.78;4961448;28;20071;-78
2021/09/27 02:56:42;;;;;;;17.88;10.30;;;;;;;13.65;100.00;95761.72;4954906;28;20036;-78
2021/09/27 02:59:38;;;;;;;17.73;9.07;;;;;;;13.57;100.00;95767.63;4972494;28;20090;-80
2021/09/27 03:02:36;;;;;;;21.95;9.95;;;;;;;13.62;100.00;95764.94;4972393;28;20034;-78
2021/09/27 03:05:13;;;;;;;15.48;8.93;;;;;;;13.43;100.00;95761.44;4956180;28;20149;-78
2021/09/27 03:07:47;;;;;;;19.10;9.15;;;;;;;13.39;100.00;95763.06;4969094;28;20047;-78
2021/09/27 03:10:28;;;;;;;24.92;10.35;;;;;;;13.30;100.00;95762.88;4971371;28;20097;-78
2021/09/27 03:13:17;;;;;;;20.23;9.93;;;;;;;13.25;100.00;95761.06;4973591;28;20147;-79
2021/09/27 03:16:12;;;;;;;18.10;8.98;;;;;;;13.22;100.00;95751.06;4963059;28;20504;-78
2021/09/27 03:18:53;;;;;;;20.42;9.20;;;;;;;13.21;100.00;95754.00;4971726;28;20039;-78
2021/09/27 03:21:33;;;;;;;24.38;9.65;;;;;;;13.12;100.00;95745.88;4965050;28;20104;-78
2021/09/27 03:24:09;;;;;;;17.00;8.55;;;;;;;13.09;100.00;95751.72;4955238;28;20073;-78
2021/09/27 03:26:59;;;;;;;18.25;9.30;;;;;;;12.99;100.00;95753.38;4965750;28;20038;-78
2021/09/27 03:30:01;;;;;;;18.88;9.35;;;;;;;13.09;100.00;95754.38;4969371;28;20057;-78
2021/09/27 03:33:04;;;;;;;17.10;9.65;;;;;;;12.98;100.00;95762.38;4927467;28;20063;-79
2021/09/27 03:35:42;;;;;;;18.60;9.43;;;;;;;12.96;100.00;95761.88;4955609;28;20064;-78
2021/09/27 03:38:41;;;;;;;18.73;9.50;;;;;;;12.99;100.00;95758.66;4974271;28;20051;-78
2021/09/27 03:41:14;;;;;;;14.55;8.38;;;;;;;12.89;100.00;95758.75;4970992;28;20043;-79
2021/09/27 03:43:58;;;;;;;15.80;8.57;;;;;;;12.93;100.00;95758.97;4971067;28;20047;-79
2021/09/27 03:46:49;;;;;;;20.67;9.05;;;;;;;12.80;100.00;95755.13;4954373;28;20105;-78
2021/09/27 03:49:22;;;;;;;19.40;10.15;;;;;;;12.77;100.00;95756.50;4968592;28;20047;-78
2021/09/27 03:51:53;;;;;;;16.80;8.65;;;;;;;12.68;100.00;95749.44;4965599;28;20062;-78
2021/09/27 03:54:29;;;;;;;21.30;9.38;;;;;;;12.61;100.00;95753.19;4961458;28;20062;-78
2021/09/27 03:57:05;;;;;;;19.05;8.70;;;;;;;12.59;100.00;95755.31;4971460;28;20208;-78
2021/09/27 03:59:52;;;;;;;17.42;8.27;;;;;;;12.54;100.00;95752.72;4968709;28;20072;-78
2021/09/27 04:02:32;;;;;;;18.77;8.50;;;;;;;12.57;100.00;95762.72;4967670;28;20075;-79
2021/09/27 04:05:06;;;;;;;18.85;9.23;;;;;;;12.51;100.00;95761.16;4955350;28;20121;-79
2021/09/27 04:08:09;;;;;;;26.80;9.38;;;;;;;12.44;100.00;95758.84;4964400;28;20521;-78
2021/09/27 04:11:13;;;;;;;16.80;8.52;;;;;;;12.47;100.00;95752.25;4972570;28;20051;-78
2021/09/27 04:14:02;;;;;;;17.92;8.75;;;;;;;12.37;100.00;95757.56;4971156;28;20053;-78
2021/09/27 04:16:36;;;;;;;19.40;9.02;;;;;;;12.34;100.00;95758.13;4953140;28;20059;-78
2021/09/27 04:19:17;;;;;;;20.65;9.32;;;;;;;12.38;100.00;95764.44;4958887;28;20050;-79
2021/09/27 04:21:58;;;;;;;18.98;9.10;;;;;;;12.42;100.00;95762.81;4970826;28;20051;-78
2021/09/27 04:24:39;;;;;;;19.15;9.50;;;;;;;12.48;100.00;95764.34;4971079;28;20045;-79
2021/09/27 04:27:32;;;;;;;21.67;9.45;;;;;;;12.53;100.00;95756.41;4965414;28;20057;-79
2021/09/27 04:30:17;;;;;;;22.05;10.07;;;;;;;12.48;100.00;95765.16;4967396;28;20051;-78
2021/09/27 04:33:02;;;;;;;24.48;9.30;;;;;;;12.46;100.00;95755.94;4968887;28;20077;-79
2021/09/27 04:35:36;;;;;;;18.80;8.95;;;;;;;12.47;100.00;95757.53;4961587;28;20390;-78
2021/09/27 04:38:03;;;;;;;;;;;;;;;12.46;100.00;95755.94;4965061;28;20046;-78
2021/09/27 04:41:00;;;;;;;20.77;9.48;;;;;;;12.41;100.00;95756.75;4968220;28;19926;-80
2021/09/27 04:43:37;;;;;;;22.83;8.75;;;;;;;12.41;100.00;95753.31;4965846;28;20041;-79
2021/09/27 04:46:29;;;;;;;19.85;8.98;;;;;;;12.30;100.00;95742.84;4965239;28;20043;-79
2021/09/27 04:49:19;;;;;;;20.33;8.93;;;;;;;12.30;100.00;95753.38;4970742;28;20043;-79
2021/09/27 04:51:56;;;;;;;16.63;8.68;;;;;;;12.29;100.00;95751.81;4970724;28;20050;-79
2021/09/27 04:54:43;;;;;;;20.83;9.43;;;;;;;12.28;100.00;95755.53;4969915;28;20047;-78
2021/09/27 04:57:29;;;;;;;19.70;9.00;;;;;;;12.25;100.00;95740.22;4969214;28;20039;-78
2021/09/27 05:00:09;;;;;;;19.30;8.82;;;;;;;12.26;100.00;95746.31;4969986;28;20043;-79
2021/09/27 05:02:53;;;;;;;17.50;8.93;;;;;;;12.18;100.00;95745.00;4959405;28;20047;-78
2021/09/27 05:05:40;;;;;;;18.37;8.53;;;;;;;12.08;100.00;95747.72;4961163;28;20049;-79
2021/09/27 05:08:28;;;;;;;18.95;8.80;;;;;;;12.06;100.00;95752.47;4969341;28;20326;-78
2021/09/27 05:11:09;;;;;;;20.95;8.75;;;;;;;12.04;100.00;95754.59;4968100;28;20047;-79
2021/09/27 05:13:44;;;;;;;16.75;8.50;;;;;;;12.07;100.00;95754.06;4971736;28;20051;-78
2021/09/27 05:16:34;;;;;;;19.25;8.40;;;;;;;12.01;100.00;95760.41;4970640;28;20090;-78
2021/09/27 05:19:08;;;;;;;23.67;8.90;;;;;;;11.95;100.00;95763.09;4967458;28;20073;-78
2021/09/27 05:22:03;;;;;;;17.10;8.67;;;;;;;11.95;100.00;95763.09;4952065;28;20119;-78
2021/09/27 05:24:29;;;;;;;17.98;8.88;;;;;;;11.89;100.00;95769.41;4952238;28;20051;-78
2021/09/27 05:27:04;;;;;;;16.67;8.63;;;;;;;11.91;100.00;95762.03;4968292;28;20043;-79
2021/09/27 05:29:58;;;;;;;31.52;9.90;;;;;;;11.91;100.00;95761.22;4970987;28;20512;-79
2021/09/27 05:32:23;;;;;;;19.70;9.35;;;;;;;11.92;100.00;95760.97;4965665;28;20043;-78
2021/09/27 05:35:34;;;;;;;19.38;9.23;;;;;;;11.95;100.00;95768.38;4970827;28;20077;-78
2021/09/27 05:38:22;;;;;;;21.65;8.90;;;;;;;11.94;100.00;95761.50;4976765;28;20074;-79
2021/09/27 05:41:09;;;;;;;22.13;9.20;;;;;;;11.94;100.00;95769.41;4971317;28;20038;-79
2021/09/27 05:43:41;;;;;;;17.35;8.68;;;;;;;11.88;100.00;95773.13;4971008;28;20073;-80
2021/09/27 05:46:28;;;;;;;17.00;7.82;;;;;;;11.87;100.00;95766.25;4969544;28;20047;-78
2021/09/27 05:49:05;;;;;;;18.50;8.73;;;;;;;11.78;100.00;95767.91;4968320;28;20058;-79
2021/09/27 05:51:47;;;;;;;19.88;8.30;;;;;;;11.77;100.00;95766.31;4971005;28;20062;-79
2021/09/27 05:54:35;;;;;;;18.75;7.95;;;;;;;11.78;100.00;95767.91;4966054;28;20051;-78
2021/09/27 05:57:11;;;;;;;19.63;8.60;;;;;;;11.81;100.00;95771.81;4952838;28;20043;-79
2021/09/27 06:00:09;;;;;;;16.35;8.35;;;;;;;11.93;100.00;95769.66;4956282;29;20046;-80
2021/09/27 06:02:41;;;;;;;25.75;9.32;;;;;;;12.01;100.00;95781.50;4964548;28;20048;-79
2021/09/27 06:05:39;;;;;;;19.13;9.55;;;;;;;12.13;100.00;95779.34;4970629;28;20070;-78
2021/09/27 06:08:21;;;;;;;18.13;8.70;;;;;;;12.17;100.00;95780.41;4970260;28;20058;-79
2021/09/27 06:10:58;;;;;;;19.50;9.05;;;;;;;12.28;100.00;95784.56;4970791;28;20125;-79
2021/09/27 06:13:32;;;;;;;18.38;8.27;;;;;;;12.42;100.00;95771.50;4975722;28;20057;-79
2021/09/27 06:16:26;;;;;;;16.88;8.20;;;;;;;12.52;100.00;95781.22;4972813;28;20085;-79
2021/09/27 06:19:25;;;;;;;17.75;7.95;;;;;;;12.69;100.00;95780.06;4963923;28;20054;-79
2021/09/27 06:21:53;;;;;;;15.95;7.72;;;;;;;12.72;100.00;95784.78;4974248;28;20051;-79
2021/09/27 06:24:24;;;;;;;15.15;7.63;;;;;;;12.90;100.00;95773.56;4977316;28;20062;-79
2021/09/27 06:27:02;;;;;;;15.65;7.40;;;;;;;12.76;100.00;95775.25;4974865;28;20046;-79
2021/09/27 06:29:39;;;;;;;16.83;8.13;;;;;;;12.86;100.00;95775.16;4974415;28;20073;-80
2021/09/27 06:32:20;;;;;;;13.70;7.47;;;;;;;12.83;100.00;95778.38;4969444;28;20063;-80
2021/09/27 06:34:48;;;;;;;14.00;7.78;;;;;;;12.88;100.00;95777.53;4961103;28;20767;-79
2021/09/27 06:37:17;;;;;;;13.93;7.50;;;;;;;12.99;100.00;95773.75;4968969;28;20520;-79
2021/09/27 06:39:43;;;;;;;17.73;8.57;;;;;;;13.12;100.00;95772.31;4971964;28;20113;-79
2021/09/27 06:42:09;;;;;;;14.40;7.55;;;;;;;13.24;100.00;95767.41;4974974;28;20490;-79
2021/09/27 06:44:34;;;;;;;15.45;8.00;;;;;;;13.39;100.00;95765.72;4973598;28;20046;-79
2021/09/27 06:47:00;;;;;;;16.83;8.30;;;;;;;13.47;100.00;95763.25;4972317;28;20051;-79
2021/09/27 06:49:26;;;;;;;13.40;6.88;;;;;;;13.72;100.00;95768.53;4973274;28;20125;-79
2021/09/27 06:51:52;;;;;;;13.57;7.43;;;;;;;13.80;100.00;95765.25;4971143;28;20050;-79
2021/09/27 06:54:19;;;;;;;15.82;7.63;;;;;;;14.03;100.00;95769.72;4972849;28;20050;-80
2021/09/27 06:56:46;;;;;;;12.40;7.18;;;;;;;14.23;100.00;95772.41;4970718;28;20054;-79
2021/09/27 06:59:16;;;;;;;14.38;7.93;;;;;;;14.40;100.00;95769.25;4974715;28;20047;-79
2021/09/27 07:01:42;;;;;;;16.80;7.38;;;;;;;14.45;100.00;95763.88;4968004;28;20699;-80
2021/09/27 07:04:08;;;;;;;17.38;7.85;;;;;;;14.53;100.00;95757.94;4963332;28;20054;-79
2021/09/27 07:06:33;;;;;;;16.00;7.07;;;;;;;14.57;100.00;95761.59;4972299;28;20038;-80
2021/09/27 07:08:59;;;;;;;12.98;6.72;;;;;;;14.49;100.00;95759.56;4970827;28;20050;-80
2021/09/27 07:11:25;;;;;;;12.57;6.55;;;;;;;14.61;100.00;95762.59;4971484;28;20408;-79
2021/09/27 07:13:50;;;;;;;15.48;7.43;;;;;;;14.52;100.00;95766.94;4974506;28;20097;-78
2021/09/27 07:16:16;;;;;;;13.40;6.93;;;;;;;14.58;100.00;95760.47;4962957;28;20126;-79
2021/09/27 07:18:42;;;;;;;11.32;6.93;;;;;;;14.76;100.00;95760.78;4971817;28;20047;-78
2021/09/27 07:21:10;;;;;;;10.85;6.28;;;;;;;14.85;100.00;95767.00;4972584;28;20047;-79
2021/09/27 07:23:38;;;;;;;15.55;7.75;;;;;;;14.75;100.00;95759.22;4966976;28;20047;-80
2021/09/27 07:26:06;;;;;;;12.77;7.30;;;;;;;14.85;100.00;95761.69;4973421;28;20043;-79
2021/09/27 07:28:32;;;;;;;12.75;6.82;;;;;;;14.99;100.00;95762.50;4973377;28;20109;-78
2021/09/27 07:30:57;;;;;;;14.07;7.13;;;;;;;15.11;100.00;95763.91;4972274;28;20046;-78
2021/09/27 07:33:24;;;;;;;13.43;6.88;;;;;;;15.10;100.00;95757.03;4971808;28;20039;-80
2021/09/27 07:35:49;;;;;;;12.45;7.25;;;;;;;15.04;100.00;95761.63;4970871;28;20093;-79
2021/09/27 07:38:15;;;;;;;12.55;6.72;;;;;;;15.10;100.00;95762.34;4963780;28;20045;-79
2021/09/27 07:40:41;;;;;;;11.77;6.88;;;;;;;15.10;100.00;95762.34;4971599;28;20120;-78
2021/09/27 07:43:07;;;;;;;15.35;6.97;;;;;;;15.14;100.00;95752.72;4971181;28;20050;-78
2021/09/27 07:45:35;;;;;;;12.20;7.05;;;;;;;15.17;100.00;95757.44;4967487;28;20532;-77
2021/09/27 07:48:03;;;;;;;14.32;7.97;;;;;;;15.01;100.00;95760.38;4961847;28;20046;-79
2021/09/27 07:50:29;;;;;;;11.90;7.18;;;;;;;15.34;100.00;95755.03;4967875;28;20054;-78
2021/09/27 07:52:55;;;;;;;11.98;7.00;;;;;;;15.33;100.00;95752.66;4971663;28;20054;-78
2021/09/27 07:55:20;;;;;;;12.68;6.93;;;;;;;15.24;100.00;95752.53;4966314;28;20126;-78
2021/09/27 07:57:46;;;;;;;13.07;6.82;;;;;;;15.30;100.00;95748.75;4965244;28;20039;-78
2021/09/27 08:00:14;;;;;;;13.13;6.80;;;;;;;15.28;100.00;95748.22;4970763;28;20041;-78
2021/09/27 08:02:41;;;;;;;11.10;6.97;;;;;;;15.40;100.00;95751.19;4969662;28;20047;-78
2021/09/27 08:05:10;;;;;;;13.57;6.75;;;;;;;15.31;100.00;95752.94;4968515;28;20442;-79
2021/09/27 08:07:35;;;;;;;11.68;6.65;;;;;;;15.39;100.00;95752.28;4966033;28;20450;-79
2021/09/27 08:10:02;;;;;;;11.18;6.70;;;;;;;15.50;100.00;95755.53;4958497;28;20047;-78
2021/09/27 08:12:29;;;;;;;11.27;6.45;;;;;;;15.63;100.00;95753.16;4970330;28;20058;-78
2021/09/27 08:14:56;;;;;;;11.30;6.95;;;;;;;15.66;100.00;95753.38;4969385;28;20093;-79
2021/09/27 08:17:22;;;;;;;10.82;6.57;;;;;;;15.75;96.84;95756.09;4970834;28;20046;-78
2021/09/27 08:19:47;;;;;;;10.30;6.63;;;;;;;15.75;98.72;95756.88;4969422;28;20563;-78
2021/09/27 08:22:13;;;;;;;11.32;6.75;;;;;;;15.79;99.86;95756.31;4957460;28;20047;-78
2021/09/27 08:24:39;;;;;;;16.20;7.50;;;;;;;15.85;98.08;95749.84;4968155;28;20042;-78
2021/09/27 08:27:05;;;;;;;13.43;7.53;;;;;;;15.81;97.55;95754.16;4960680;28;20062;-77
2021/09/27 08:29:31;;;;;;;13.15;7.53;;;;;;;15.58;98.41;95762.00;4970168;28;20433;-77
2021/09/27 08:31:57;;;;;;;12.35;7.85;;;;;;;15.72;100.00;95760.13;4964837;28;20050;-76
2021/09/27 08:34:22;;;;;;;15.82;8.25;;;;;;;15.70;97.55;95759.66;4968795;28;20053;-79
2021/09/27 08:36:49;;;;;;;14.68;7.80;;;;;;;15.59;99.55;95758.28;4961968;28;20066;-80
2021/09/27 08:39:15;;;;;;;13.27;8.00;;;;;;;15.80;99.86;95765.84;4968256;28;20063;-79
2021/09/27 08:41:40;;;;;;;15.02;8.15;;;;;;;15.83;100.00;95762.59;4952532;28;20794;-78
2021/09/27 08:44:27;;;;;;;13.32;7.78;;;;;;;16.06;98.72;95761.59;4955998;28;20042;-78
2021/09/27 08:47:00;;;;;;;13.13;7.47;;;;;;;16.11;97.48;95761.47;4951534;28;20043;-77
2021/09/27 08:49:47;;;;;;;14.65;7.53;;;;;;;16.27;98.61;95755.84;4949970;29;20047;-77
2021/09/27 08:52:17;;;;;;;14.82;8.40;;;;;;;16.43;100.00;95748.31;4951106;28;20505;-78
2021/09/27 08:54:43;;;;;;;14.73;7.97;;;;;;;16.65;91.80;95750.22;4967058;28;20047;-78
2021/09/27 08:57:36;;;;;;;14.60;7.57;;;;;;;16.64;98.68;95751.31;4968072;28;20043;-78
2021/09/27 09:00:36;;;;;;;15.70;7.90;;;;;;;16.56;95.32;95757.31;4969218;28;20057;-78
2021/09/27 09:03:17;;;;;;;12.80;7.97;;;;;;;16.61;96.87;95762.53;4960496;28;21004;-77
2021/09/27 09:06:03;;;;;;;15.05;8.45;;;;;;;16.21;97.79;95751.75;4950984;29;20498;-79
2021/09/27 09:08:45;;;;;;;18.42;8.90;;;;;;;16.02;98.32;95744.69;4962976;28;20042;-80
2021/09/27 09:11:49;;;;;;;14.20;8.27;;;;;;;16.40;95.17;95749.69;4962212;28;20129;-79
2021/09/27 09:14:21;;;;;;;14.98;8.10;;;;;;;16.65;93.62;95755.53;4964397;28;20043;-77
2021/09/27 09:16:50;;;;;;;14.13;8.07;;;;;;;16.60;91.45;95743.13;4967714;28;20433;-80
2021/09/27 09:19:20;;;;;;;15.90;7.47;;;;;;;16.83;92.35;95745.00;4962797;28;20098;-79
2021/09/27 09:21:57;;;;;;;15.45;8.27;;;;;;;16.80;92.11;95746.41;4968983;28;20050;-77
2021/09/27 09:24:32;;;;;;;13.15;8.00;;;;;;;16.70;93.91;95736.78;4966284;28;20137;-78
2021/09/27 09:27:02;;;;;;;14.07;8.23;;;;;;;16.93;92.52;95739.47;4967543;28;20413;-78
2021/09/27 09:29:31;;;;;;;15.32;7.97;;;;;;;16.81;92.41;95732.03;4965592;28;20043;-82
2021/09/27 09:32:00;;;;;;;17.10;8.18;;;;;;;17.17;87.13;95738.34;4971027;28;20042;-79
2021/09/27 09:34:35;;;;;;;14.77;8.13;;;;;;;17.22;88.54;95735.56;4970730;28;20046;-78
2021/09/27 09:37:11;;;;;;;13.45;8.05;;;;;;;17.08;93.46;95736.44;4968620;28;20045;-79
2021/09/27 09:40:03;;;;;;;15.90;7.00;;;;;;;17.25;87.20;95729.63;4970664;28;20664;-78
2021/09/27 09:42:34;;;;;;;12.60;8.00;;;;;;;17.14;89.19;95732.53;4969828;28;20058;-79
2021/09/27 09:45:16;;;;;;;13.63;7.80;;;;;;;17.43;86.80;95731.25;4970572;28;20066;-79
2021/09/27 09:47:42;;;;;;;12.60;7.93;;;;;;;17.70;86.27;95724.16;4971760;28;20070;-79
2021/09/27 09:50:13;;;;;;;14.30;8.65;;;;;;;17.93;91.31;95734.69;4971931;28;20489;-78
2021/09/27 09:52:46;;;;;;;16.60;9.98;;;;;;;18.18;91.39;95728.63;4971138;28;20051;-76
2021/09/27 09:55:15;;;;;;;12.48;7.47;;;;;;;18.05;82.53;95734.88;4970000;28;20039;-76
2021/09/27 09:57:53;;;;;;;14.80;8.27;;;;;;;17.77;85.66;95729.81;4968801;28;20462;-75
2021/09/27 10:00:36;;;;;;;11.73;7.07;;;;;;;17.68;84.03;95736.97;4971003;28;20042;-78
2021/09/27 10:03:03;;;;;;;13.65;7.90;;;;;;;17.67;84.58;95730.88;4970191;28;20042;-78
2021/09/27 10:05:44;;;;;;;14.32;8.25;;;;;;;18.30;81.59;95735.22;4971554;28;20047;-81
2021/09/27 10:08:16;;;;;;;13.05;8.00;;;;;;;19.40;81.00;95732.22;4971265;28;20047;-77
2021/09/27 10:10:53;;;;;;;12.10;7.82;;;;;;;19.74;73.19;95735.84;4970465;28;20101;-78
2021/09/27 10:13:35;;;;;;;13.68;8.85;;;;;;;20.50;79.60;95728.75;4971277;28;20074;-76
2021/09/27 10:16:08;;;;;;;14.20;8.80;;;;;;;20.84;78.16;95721.53;4968952;28;20737;-77
2021/09/27 10:18:38;;;;;;;12.10;7.45;;;;;;;20.42;75.03;95726.91;4973831;28;20126;-78
2021/09/27 10:21:31;;;;;;;12.07;7.80;;;;;;;20.75;75.47;95723.50;4973095;28;20049;-78
2021/09/27 10:24:13;;;;;;;12.90;8.20;;;;;;;21.38;75.95;95717.94;4971831;28;20042;-78
2021/09/27 10:26:45;;;;;;;11.60;6.90;;;;;;;22.11;65.14;95704.84;4970043;28;20050;-78
2021/09/27 10:29:18;;;;;;;12.30;7.00;;;;;;;22.28;67.27;95715.31;4970949;28;20754;-79
2021/09/27 10:32:12;;;;;;;11.82;7.25;;;;;;;21.65;74.55;95720.31;4968283;28;20053;-77
2021/09/27 10:34:38;;;;;;;12.73;7.90;;;;;;;20.76;71.29;95709.81;4966696;28;20058;-77
2021/09/27 10:37:11;;;;;;;11.40;7.72;;;;;;;20.72;74.20;95718.81;4962643;28;20043;-77
2021/09/27 10:39:37;;;;;;;12.38;8.20;;;;;;;19.62;77.16;95714.38;4963489;28;20094;-77
2021/09/27 10:42:10;;;;;;;15.63;8.63;;;;;;;20.43;71.32;95717.81;4973916;28;20047;-78
2021/09/27 10:44:42;;;;;;;12.68;7.95;;;;;;;20.77;68.34;95716.72;4972125;28;20602;-77
2021/09/27 10:47:13;;;;;;;15.80;8.73;;;;;;;21.71;76.01;95708.28;4972961;28;20113;-79
2021/09/27 10:49:52;;;;;;;11.30;7.75;;;;;;;22.02;67.50;95717.59;4971247;28;20043;-78
2021/09/27 10:52:20;;;;;;;11.27;7.30;;;;;;;22.67;62.37;95718.31;4974499;28;20042;-77
2021/09/27 10:55:15;;;;;;;11.57;7.72;;;;;;;22.64;64.73;95719.03;4970678;28;20046;-78
2021/09/27 10:57:56;;;;;;;;;;;;;;;21.00;66.17;95712.88;4955960;28;20063;-79
2021/09/27 11:00:36;;;;;;;9.55;7.03;;;;;;;22.42;60.83;95708.81;4970329;28;19926;-76
2021/09/27 11:03:08;;;;;;;12.15;7.43;;;;;;;22.72;58.75;95709.25;4969316;28;20495;-76
2021/09/27 11:05:58;;;;;;;12.05;7.70;;;;;;;23.09;60.18;95702.91;4968596;28;20089;-75
2021/09/27 11:08:46;;;;;;;11.38;7.38;;;;;;;23.08;62.27;95712.09;4962528;28;20508;-76
2021/09/27 11:11:22;;;;;;;10.82;7.47;;;;;;;23.94;59.50;95708.78;4969815;28;20034;-77
2021/09/27 11:13:48;;;;;;;11.38;7.50;;;;;;;24.24;53.81;95710.94;4971930;28;20042;-76
2021/09/27 11:16:29;;;;;;;14.15;8.85;;;;;;;24.02;64.58;95710.50;4959727;28;20061;-76
2021/09/27 11:19:23;;;;;;;12.35;7.57;;;;;;;24.56;52.72;95708.09;4971088;28;20054;-76
2021/09/27 11:21:48;;;;;;;10.82;8.00;;;;;;;23.02;60.38;95693.53;4958161;28;20043;-76
2021/09/27 11:24:17;;;;;;;11.05;7.60;;;;;;;24.28;54.73;95711.78;4953229;28;20038;-76
2021/09/27 11:26:51;;;;;;;11.40;7.63;;;;;;;24.70;55.49;95700.34;4971355;28;20051;-76
2021/09/27 11:29:17;;;;;;;13.48;8.05;;;;;;;24.88;51.17;95697.19;4969686;28;20472;-76
2021/09/27 11:31:43;;;;;;;10.38;7.15;;;;;;;24.97;50.75;95696.94;4965368;28;20093;-76
2021/09/27 11:34:08;;;;;;;11.50;7.20;;;;;;;25.28;49.33;95695.19;4967711;28;20066;-76
2021/09/27 11:36:46;;;;;;;11.10;7.60;;;;;;;24.73;54.56;95696.94;4969960;28;20412;-76
2021/09/27 11:39:16;;;;;;;10.57;7.38;;;;;;;24.87;51.16;95699.09;4970636;28;20114;-76
2021/09/27 11:42:13;;;;;;;11.85;7.28;;;;;;;24.85;51.49;95689.81;4970341;28;20050;-77
2021/09/27 11:44:58;;;;;;;11.80;8.20;;;;;;;25.40;56.83;95682.31;4951693;28;20493;-76
2021/09/27 11:48:12;;;;;;;9.70;7.07;;;;;;;25.71;47.35;95685.06;4961067;28;20050;-76
2021/09/27 11:50:47;;;;;;;11.05;7.45;;;;;;;25.57;49.19;95680.25;4964369;28;20074;-76
2021/09/27 11:53:36;;;;;;;12.60;8.40;;;;;;;26.09;52.76;95681.41;4969776;28;20077;-76
2021/09/27 11:56:07;;;;;;;14.50;8.25;;;;;;;25.30;50.01;95677.53;4962248;28;20126;-77
2021/09/27 11:58:46;;;;;;;16.60;8.50;;;;;;;26.04;52.43;95681.69;4970248;28;20497;-76
2021/09/27 12:01:33;;;;;;;13.05;8.75;;;;;;;25.54;51.26;95680.97;4970608;28;20043;-77